sensor_id;sensor_type;location;lat;lon;timestamp;pressure;altitude;pressure_sealevel;temperature;humidity
79413;BME280;68863;49.528;11.010;2023-06-22T00:00:23;98406.28;;;21.08;65.46
79413;BME280;68863;49.528;11.010;2023-06-22T00:01:23;98398.50;;;20.90;66.08
79413;BME280;68863;49.528;11.010;2023-06-22T00:02:24;98405.38;;;20.76;66.39
79413;BME280;68863;49.528;11.010;2023-06-22T00:03:24;98398.72;;;20.64;66.97
79413;BME280;68863;49.528;11.010;2023-06-22T00:04:25;98386.69;;;20.76;66.62
79413;BME280;68863;49.528;11.010;2023-06-22T00:05:25;98407.22;;;20.68;67.10
79413;BME280;68863;49.528;11.010;2023-06-22T00:06:26;98405.91;;;20.64;67.48
79413;BME280;68863;49.528;11.010;2023-06-22T00:07:26;98409.06;;;20.75;67.14
79413;BME280;68863;49.528;11.010;2023-06-22T00:08:26;98407.03;;;20.77;66.66
79413;BME280;68863;49.528;11.010;2023-06-22T00:09:26;98410.00;;;20.83;66.22
79413;BME280;68863;49.528;11.010;2023-06-22T00:10:27;98411.69;;;20.92;66.07
79413;BME280;68863;49.528;11.010;2023-06-22T00:11:27;98411.16;;;20.96;65.48
79413;BME280;68863;49.528;11.010;2023-06-22T00:12:27;98414.38;;;20.75;66.02
79413;BME280;68863;49.528;11.010;2023-06-22T00:13:28;98408.38;;;20.65;66.36
79413;BME280;68863;49.528;11.010;2023-06-22T00:14:28;98406.38;;;20.59;66.78
79413;BME280;68863;49.528;11.010;2023-06-22T00:15:28;98405.72;;;20.57;67.01
79413;BME280;68863;49.528;11.010;2023-06-22T00:16:29;98406.03;;;20.46;66.87
79413;BME280;68863;49.528;11.010;2023-06-22T00:17:29;98412.72;;;20.58;66.83
79413;BME280;68863;49.528;11.010;2023-06-22T00:18:30;98404.22;;;20.38;67.48
79413;BME280;68863;49.528;11.010;2023-06-22T00:19:30;98407.41;;;20.50;66.99
79413;BME280;68863;49.528;11.010;2023-06-22T00:20:31;98412.72;;;20.42;67.57
79413;BME280;68863;49.528;11.010;2023-06-22T00:21:33;98415.88;;;20.37;67.57
79413;BME280;68863;49.528;11.010;2023-06-22T00:22:33;98410.88;;;20.34;67.74
79413;BME280;68863;49.528;11.010;2023-06-22T00:23:38;98420.41;;;20.53;66.67
79413;BME280;68863;49.528;11.010;2023-06-22T00:24:38;98421.72;;;20.65;66.42
79413;BME280;68863;49.528;11.010;2023-06-22T00:25:39;98422.38;;;20.59;66.44
79413;BME280;68863;49.528;11.010;2023-06-22T00:26:40;98424.38;;;20.73;65.97
79413;BME280;68863;49.528;11.010;2023-06-22T00:27:40;98422.41;;;20.75;65.21
79413;BME280;68863;49.528;11.010;2023-06-22T00:28:40;98421.41;;;20.68;66.13
79413;BME280;68863;49.528;11.010;2023-06-22T00:29:40;98424.22;;;20.59;66.14
79413;BME280;68863;49.528;11.010;2023-06-22T00:30:41;98426.06;;;20.58;66.10
79413;BME280;68863;49.528;11.010;2023-06-22T00:31:41;98427.41;;;20.54;66.23
79413;BME280;68863;49.528;11.010;2023-06-22T00:32:42;98424.72;;;20.46;66.88
79413;BME280;68863;49.528;11.010;2023-06-22T00:33:43;98429.03;;;20.47;66.76
79413;BME280;68863;49.528;11.010;2023-06-22T00:34:43;98428.41;;;20.37;66.92
79413;BME280;68863;49.528;11.010;2023-06-22T00:35:43;98432.91;;;20.44;67.06
79413;BME280;68863;49.528;11.010;2023-06-22T00:36:44;98432.25;;;20.50;66.50
79413;BME280;68863;49.528;11.010;2023-06-22T00:37:44;98431.91;;;20.53;66.71
79413;BME280;68863;49.528;11.010;2023-06-22T00:38:44;98441.91;;;20.51;66.67
79413;BME280;68863;49.528;11.010;2023-06-22T00:39:45;98444.72;;;20.42;66.31
79413;BME280;68863;49.528;11.010;2023-06-22T00:40:45;98450.38;;;20.39;66.50
79413;BME280;68863;49.528;11.010;2023-06-22T00:41:45;98452.22;;;20.46;66.47
79413;BME280;68863;49.528;11.010;2023-06-22T00:42:46;98462.41;;;20.59;66.01
79413;BME280;68863;49.528;11.010;2023-06-22T00:43:46;98461.03;;;20.47;67.03
79413;BME280;68863;49.528;11.010;2023-06-22T00:44:46;98453.91;;;20.55;65.74
79413;BME280;68863;49.528;11.010;2023-06-22T00:45:47;98459.72;;;20.26;66.74
79413;BME280;68863;49.528;11.010;2023-06-22T00:46:47;98459.38;;;20.38;66.82
79413;BME280;68863;49.528;11.010;2023-06-22T00:47:48;98456.75;;;20.54;66.20
79413;BME280;68863;49.528;11.010;2023-06-22T00:48:50;98458.25;;;20.57;66.27
79413;BME280;68863;49.528;11.010;2023-06-22T00:49:51;98467.25;;;20.55;66.24
79413;BME280;68863;49.528;11.010;2023-06-22T00:50:52;98465.06;;;20.43;66.95
79413;BME280;68863;49.528;11.010;2023-06-22T00:51:53;98466.72;;;20.44;66.91
79413;BME280;68863;49.528;11.010;2023-06-22T00:52:56;98468.56;;;20.51;66.72
79413;BME280;68863;49.528;11.010;2023-06-22T00:53:57;98468.25;;;20.54;67.06
79413;BME280;68863;49.528;11.010;2023-06-22T00:54:58;98457.75;;;20.53;66.21
79413;BME280;68863;49.528;11.010;2023-06-22T00:56:01;98463.22;;;20.43;67.01
79413;BME280;68863;49.528;11.010;2023-06-22T00:57:03;98462.38;;;20.35;67.14
79413;BME280;68863;49.528;11.010;2023-06-22T00:58:06;98458.38;;;20.47;66.70
79413;BME280;68863;49.528;11.010;2023-06-22T00:59:10;98455.06;;;20.45;67.07
79413;BME280;68863;49.528;11.010;2023-06-22T01:00:12;98454.41;;;20.51;66.66
79413;BME280;68863;49.528;11.010;2023-06-22T01:01:18;98457.75;;;20.53;66.68
79413;BME280;68863;49.528;11.010;2023-06-22T01:02:23;98447.38;;;20.34;67.21
79413;BME280;68863;49.528;11.010;2023-06-22T01:03:23;98454.38;;;20.43;67.41
79413;BME280;68863;49.528;11.010;2023-06-22T01:04:34;98453.88;;;20.39;67.73
79413;BME280;68863;49.528;11.010;2023-06-22T01:05:36;98448.22;;;20.42;67.70
79413;BME280;68863;49.528;11.010;2023-06-22T01:06:43;98445.22;;;20.45;67.86
79413;BME280;68863;49.528;11.010;2023-06-22T01:09:15;98437.88;;;20.31;67.93
79413;BME280;68863;49.528;11.010;2023-06-22T01:10:26;98434.69;;;20.44;68.06
79413;BME280;68863;49.528;11.010;2023-06-22T01:11:32;98431.38;;;20.25;68.33
79413;BME280;68863;49.528;11.010;2023-06-22T01:12:43;98427.53;;;20.28;68.06
79413;BME280;68863;49.528;11.010;2023-06-22T01:13:52;98425.88;;;20.27;68.29
79413;BME280;68863;49.528;11.010;2023-06-22T01:15:08;98421.69;;;20.16;68.73
79413;BME280;68863;49.528;11.010;2023-06-22T01:16:42;98418.88;;;20.26;68.03
79413;BME280;68863;49.528;11.010;2023-06-22T01:17:44;98405.69;;;20.16;68.57
79413;BME280;68863;49.528;11.010;2023-06-22T01:18:46;98406.19;;;20.36;68.08
79413;BME280;68863;49.528;11.010;2023-06-22T01:19:50;98395.88;;;20.41;67.61
79413;BME280;68863;49.528;11.010;2023-06-22T01:20:56;98396.91;;;20.40;67.77
79413;BME280;68863;49.528;11.010;2023-06-22T01:22:00;98383.22;;;20.27;68.21
79413;BME280;68863;49.528;11.010;2023-06-22T01:23:26;98377.56;;;20.30;68.06
79413;BME280;68863;49.528;11.010;2023-06-22T01:25:57;98367.72;;;20.55;67.12
79413;BME280;68863;49.528;11.010;2023-06-22T01:27:21;98362.22;;;20.57;66.68
79413;BME280;68863;49.528;11.010;2023-06-22T01:29:34;98353.19;;;20.66;66.21
79413;BME280;68863;49.528;11.010;2023-06-22T01:30:37;98363.56;;;20.44;67.47
79413;BME280;68863;49.528;11.010;2023-06-22T01:31:40;98357.22;;;20.53;66.76
79413;BME280;68863;49.528;11.010;2023-06-22T01:32:42;98356.41;;;20.53;66.68
79413;BME280;68863;49.528;11.010;2023-06-22T01:33:45;98349.03;;;20.55;66.75
79413;BME280;68863;49.528;11.010;2023-06-22T01:34:47;98351.56;;;20.57;66.36
79413;BME280;68863;49.528;11.010;2023-06-22T01:35:48;98354.03;;;20.58;66.47
79413;BME280;68863;49.528;11.010;2023-06-22T01:36:49;98352.38;;;20.57;66.45
79413;BME280;68863;49.528;11.010;2023-06-22T01:37:50;98354.69;;;20.44;66.56
79413;BME280;68863;49.528;11.010;2023-06-22T01:38:52;98358.91;;;20.14;67.93
79413;BME280;68863;49.528;11.010;2023-06-22T01:39:53;98367.53;;;20.24;67.54
79413;BME280;68863;49.528;11.010;2023-06-22T01:40:57;98371.88;;;20.08;68.02
79413;BME280;68863;49.528;11.010;2023-06-22T01:41:58;98369.56;;;20.05;67.82
79413;BME280;68863;49.528;11.010;2023-06-22T01:43:00;98369.91;;;20.02;68.46
79413;BME280;68863;49.528;11.010;2023-06-22T01:44:02;98369.91;;;20.02;68.40
79413;BME280;68863;49.528;11.010;2023-06-22T01:45:06;98373.56;;;20.10;67.91
79413;BME280;68863;49.528;11.010;2023-06-22T01:46:07;98377.25;;;20.17;67.50
79413;BME280;68863;49.528;11.010;2023-06-22T01:47:08;98372.72;;;20.01;68.18
79413;BME280;68863;49.528;11.010;2023-06-22T01:48:08;98377.06;;;19.94;68.40
79413;BME280;68863;49.528;11.010;2023-06-22T01:49:09;98383.72;;;19.98;68.27
79413;BME280;68863;49.528;11.010;2023-06-22T01:50:09;98383.22;;;19.94;68.66
79413;BME280;68863;49.528;11.010;2023-06-22T01:51:10;98372.06;;;20.07;68.12
79413;BME280;68863;49.528;11.010;2023-06-22T01:52:11;98370.06;;;20.17;67.66
79413;BME280;68863;49.528;11.010;2023-06-22T01:53:11;98378.06;;;20.17;67.82
79413;BME280;68863;49.528;11.010;2023-06-22T01:54:11;98379.88;;;19.92;68.22
79413;BME280;68863;49.528;11.010;2023-06-22T01:55:12;98383.38;;;20.01;68.25
79413;BME280;68863;49.528;11.010;2023-06-22T01:56:12;98384.88;;;20.12;67.91
79413;BME280;68863;49.528;11.010;2023-06-22T01:57:12;98387.03;;;20.16;67.46
79413;BME280;68863;49.528;11.010;2023-06-22T01:58:13;98390.88;;;20.22;67.20
79413;BME280;68863;49.528;11.010;2023-06-22T01:59:18;98389.72;;;20.16;67.46
79413;BME280;68863;49.528;11.010;2023-06-22T02:00:22;98389.56;;;20.26;67.31
79413;BME280;68863;49.528;11.010;2023-06-22T02:01:28;98390.38;;;19.94;68.30
79413;BME280;68863;49.528;11.010;2023-06-22T02:02:36;98390.69;;;19.82;68.65
79413;BME280;68863;49.528;11.010;2023-06-22T02:03:44;98393.03;;;19.86;68.87
79413;BME280;68863;49.528;11.010;2023-06-22T02:04:50;98391.66;;;19.81;68.86
79413;BME280;68863;49.528;11.010;2023-06-22T02:05:58;98396.34;;;19.88;68.65
79413;BME280;68863;49.528;11.010;2023-06-22T02:07:05;98402.84;;;19.85;68.54
79413;BME280;68863;49.528;11.010;2023-06-22T02:08:17;98412.69;;;19.93;68.39
79413;BME280;68863;49.528;11.010;2023-06-22T02:09:20;98407.00;;;19.79;69.12
79413;BME280;68863;49.528;11.010;2023-06-22T02:10:23;98423.63;;;19.73;69.48
79413;BME280;68863;49.528;11.010;2023-06-22T02:11:26;98416.00;;;19.78;68.74
79413;BME280;68863;49.528;11.010;2023-06-22T02:12:29;98421.84;;;19.82;68.65
79413;BME280;68863;49.528;11.010;2023-06-22T02:13:30;98420.44;;;19.62;69.26
79413;BME280;68863;49.528;11.010;2023-06-22T02:14:32;98426.28;;;19.73;69.22
79413;BME280;68863;49.528;11.010;2023-06-22T02:15:34;98416.97;;;19.77;68.25
79413;BME280;68863;49.528;11.010;2023-06-22T02:16:35;98421.63;;;19.67;68.71
79413;BME280;68863;49.528;11.010;2023-06-22T02:17:35;98420.16;;;19.81;68.76
79413;BME280;68863;49.528;11.010;2023-06-22T02:18:36;98411.66;;;19.77;68.50
79413;BME280;68863;49.528;11.010;2023-06-22T02:19:37;98418.19;;;19.91;68.55
79413;BME280;68863;49.528;11.010;2023-06-22T02:20:38;98409.66;;;19.71;68.89
79413;BME280;68863;49.528;11.010;2023-06-22T02:21:38;98407.00;;;19.71;69.12
79413;BME280;68863;49.528;11.010;2023-06-22T02:22:38;98396.00;;;19.66;69.30
79413;BME280;68863;49.528;11.010;2023-06-22T02:23:39;98400.06;;;19.52;69.46
79413;BME280;68863;49.528;11.010;2023-06-22T02:24:39;98398.53;;;19.42;69.79
79413;BME280;68863;49.528;11.010;2023-06-22T02:25:39;98406.75;;;19.56;69.70
79413;BME280;68863;49.528;11.010;2023-06-22T02:26:40;98404.13;;;19.65;69.21
79413;BME280;68863;49.528;11.010;2023-06-22T02:27:42;98412.56;;;19.52;69.99
79413;BME280;68863;49.528;11.010;2023-06-22T02:28:42;98402.31;;;19.65;69.40
79413;BME280;68863;49.528;11.010;2023-06-22T02:29:43;98392.16;;;19.69;68.71
79413;BME280;68863;49.528;11.010;2023-06-22T02:30:43;98390.19;;;19.87;67.78
79413;BME280;68863;49.528;11.010;2023-06-22T02:31:43;98391.72;;;19.90;67.92
79413;BME280;68863;49.528;11.010;2023-06-22T02:32:44;98386.72;;;19.95;67.79
79413;BME280;68863;49.528;11.010;2023-06-22T02:33:44;98400.03;;;19.95;67.76
79413;BME280;68863;49.528;11.010;2023-06-22T02:34:45;98399.34;;;19.93;68.04
79413;BME280;68863;49.528;11.010;2023-06-22T02:35:47;98409.69;;;19.96;68.08
79413;BME280;68863;49.528;11.010;2023-06-22T02:36:49;98411.84;;;19.92;67.52
79413;BME280;68863;49.528;11.010;2023-06-22T02:37:52;98424.69;;;19.97;67.46
79413;BME280;68863;49.528;11.010;2023-06-22T02:38:53;98425.84;;;19.94;67.46
79413;BME280;68863;49.528;11.010;2023-06-22T02:39:54;98437.31;;;19.78;67.59
79413;BME280;68863;49.528;11.010;2023-06-22T02:40:54;98447.63;;;19.81;68.45
79413;BME280;68863;49.528;11.010;2023-06-22T02:41:54;98463.97;;;19.87;68.18
79413;BME280;68863;49.528;11.010;2023-06-22T02:42:55;98483.63;;;19.86;68.24
79413;BME280;68863;49.528;11.010;2023-06-22T02:43:58;98503.16;;;19.60;69.24
79413;BME280;68863;49.528;11.010;2023-06-22T02:44:58;98518.00;;;19.63;69.08
79413;BME280;68863;49.528;11.010;2023-06-22T02:45:58;98527.38;;;19.49;69.73
79413;BME280;68863;49.528;11.010;2023-06-22T02:46:58;98538.88;;;19.49;70.03
79413;BME280;68863;49.528;11.010;2023-06-22T02:47:59;98548.69;;;19.49;69.82
79413;BME280;68863;49.528;11.010;2023-06-22T02:48:59;98549.00;;;19.46;70.83
79413;BME280;68863;49.528;11.010;2023-06-22T02:49:59;98561.13;;;19.40;71.48
79413;BME280;68863;49.528;11.010;2023-06-22T02:51:00;98555.03;;;19.48;71.57
79413;BME280;68863;49.528;11.010;2023-06-22T02:52:00;98554.50;;;19.44;71.79
79413;BME280;68863;49.528;11.010;2023-06-22T02:53:01;98546.34;;;19.46;71.30
79413;BME280;68863;49.528;11.010;2023-06-22T02:54:01;98546.28;;;19.38;71.54
79413;BME280;68863;49.528;11.010;2023-06-22T02:55:01;98542.66;;;19.39;71.68
79413;BME280;68863;49.528;11.010;2023-06-22T02:56:02;98545.94;;;19.32;71.80
79413;BME280;68863;49.528;11.010;2023-06-22T02:57:05;98536.97;;;19.33;71.56
79413;BME280;68863;49.528;11.010;2023-06-22T02:58:05;98541.13;;;19.36;71.55
79413;BME280;68863;49.528;11.010;2023-06-22T02:59:06;98535.00;;;19.36;71.52
79413;BME280;68863;49.528;11.010;2023-06-22T03:00:07;98540.00;;;19.39;71.75
79413;BME280;68863;49.528;11.010;2023-06-22T03:01:17;98540.63;;;19.32;71.68
79413;BME280;68863;49.528;11.010;2023-06-22T03:02:23;98538.25;;;19.29;72.14
79413;BME280;68863;49.528;11.010;2023-06-22T03:03:23;98540.78;;;19.31;71.90
79413;BME280;68863;49.528;11.010;2023-06-22T03:04:26;98531.09;;;19.30;72.31
79413;BME280;68863;49.528;11.010;2023-06-22T03:05:26;98531.69;;;19.42;71.66
79413;BME280;68863;49.528;11.010;2023-06-22T03:06:27;98525.81;;;19.38;71.86
79413;BME280;68863;49.528;11.010;2023-06-22T03:07:28;98529.53;;;19.45;71.54
79413;BME280;68863;49.528;11.010;2023-06-22T03:08:30;98518.06;;;19.45;71.79
79413;BME280;68863;49.528;11.010;2023-06-22T03:09:30;98519.56;;;19.47;71.36
79413;BME280;68863;49.528;11.010;2023-06-22T03:10:30;98521.84;;;19.42;71.79
79413;BME280;68863;49.528;11.010;2023-06-22T03:11:31;98514.25;;;19.47;71.19
79413;BME280;68863;49.528;11.010;2023-06-22T03:12:32;98510.59;;;19.48;71.20
79413;BME280;68863;49.528;11.010;2023-06-22T03:13:32;98513.41;;;19.47;71.17
79413;BME280;68863;49.528;11.010;2023-06-22T03:14:32;98507.44;;;19.53;71.14
79413;BME280;68863;49.528;11.010;2023-06-22T03:15:33;98506.94;;;19.57;71.04
79413;BME280;68863;49.528;11.010;2023-06-22T03:16:34;98503.94;;;19.52;71.21
79413;BME280;68863;49.528;11.010;2023-06-22T03:17:35;98503.97;;;19.61;70.54
79413;BME280;68863;49.528;11.010;2023-06-22T03:18:35;98503.00;;;19.62;70.59
79413;BME280;68863;49.528;11.010;2023-06-22T03:19:35;98510.13;;;19.61;70.63
79413;BME280;68863;49.528;11.010;2023-06-22T03:20:36;98509.03;;;19.64;70.44
79413;BME280;68863;49.528;11.010;2023-06-22T03:21:37;98497.44;;;19.47;70.97
79413;BME280;68863;49.528;11.010;2023-06-22T03:22:41;98501.41;;;19.43;71.40
79413;BME280;68863;49.528;11.010;2023-06-22T03:23:43;98494.56;;;19.40;71.26
79413;BME280;68863;49.528;11.010;2023-06-22T03:24:43;98501.34;;;19.34;71.64
79413;BME280;68863;49.528;11.010;2023-06-22T03:25:43;98499.41;;;19.45;71.34
79413;BME280;68863;49.528;11.010;2023-06-22T03:26:44;98488.44;;;19.48;71.25
79413;BME280;68863;49.528;11.010;2023-06-22T03:27:46;98493.13;;;19.54;70.83
79413;BME280;68863;49.528;11.010;2023-06-22T03:28:48;98492.47;;;19.52;70.95
79413;BME280;68863;49.528;11.010;2023-06-22T03:29:48;98484.69;;;19.58;70.82
79413;BME280;68863;49.528;11.010;2023-06-22T03:30:48;98483.13;;;19.48;70.97
79413;BME280;68863;49.528;11.010;2023-06-22T03:31:49;98490.44;;;19.54;71.03
79413;BME280;68863;49.528;11.010;2023-06-22T03:32:49;98494.38;;;19.68;70.61
79413;BME280;68863;49.528;11.010;2023-06-22T03:33:49;98491.97;;;19.56;70.69
79413;BME280;68863;49.528;11.010;2023-06-22T03:34:50;98477.63;;;19.49;70.93
79413;BME280;68863;49.528;11.010;2023-06-22T03:35:56;98467.16;;;19.56;71.26
79413;BME280;68863;49.528;11.010;2023-06-22T03:36:56;98454.75;;;19.65;70.56
79413;BME280;68863;49.528;11.010;2023-06-22T03:37:57;98462.59;;;19.66;70.20
79413;BME280;68863;49.528;11.010;2023-06-22T03:38:57;98471.91;;;19.62;70.52
79413;BME280;68863;49.528;11.010;2023-06-22T03:39:57;98475.22;;;19.64;70.52
79413;BME280;68863;49.528;11.010;2023-06-22T03:40:58;98479.06;;;19.70;70.28
79413;BME280;68863;49.528;11.010;2023-06-22T03:41:58;98476.16;;;19.55;71.25
79413;BME280;68863;49.528;11.010;2023-06-22T03:42:59;98469.13;;;19.46;71.40
79413;BME280;68863;49.528;11.010;2023-06-22T03:43:59;98460.69;;;19.50;71.09
79413;BME280;68863;49.528;11.010;2023-06-22T03:44:59;98456.84;;;19.53;71.12
79413;BME280;68863;49.528;11.010;2023-06-22T03:46:01;98455.84;;;19.54;71.46
79413;BME280;68863;49.528;11.010;2023-06-22T03:47:01;98460.53;;;19.60;70.75
79413;BME280;68863;49.528;11.010;2023-06-22T03:48:02;98465.50;;;19.55;70.77
79413;BME280;68863;49.528;11.010;2023-06-22T03:49:02;98466.56;;;19.62;70.49
79413;BME280;68863;49.528;11.010;2023-06-22T03:50:03;98464.19;;;19.59;70.64
79413;BME280;68863;49.528;11.010;2023-06-22T03:51:03;98446.94;;;19.63;70.36
79413;BME280;68863;49.528;11.010;2023-06-22T03:52:04;98437.09;;;19.64;70.45
79413;BME280;68863;49.528;11.010;2023-06-22T03:53:05;98438.94;;;19.63;71.07
79413;BME280;68863;49.528;11.010;2023-06-22T03:54:05;98439.09;;;19.70;70.71
79413;BME280;68863;49.528;11.010;2023-06-22T03:55:06;98433.66;;;19.79;70.12
79413;BME280;68863;49.528;11.010;2023-06-22T03:56:07;98435.63;;;19.77;70.12
79413;BME280;68863;49.528;11.010;2023-06-22T03:57:07;98432.63;;;19.72;70.73
79413;BME280;68863;49.528;11.010;2023-06-22T03:58:07;98432.31;;;19.75;70.19
79413;BME280;68863;49.528;11.010;2023-06-22T03:59:09;98428.97;;;19.81;69.97
79413;BME280;68863;49.528;11.010;2023-06-22T04:00:10;98427.78;;;19.68;70.69
79413;BME280;68863;49.528;11.010;2023-06-22T04:01:11;98438.78;;;19.73;70.89
79413;BME280;68863;49.528;11.010;2023-06-22T04:02:14;98436.81;;;19.75;70.41
79413;BME280;68863;49.528;11.010;2023-06-22T04:03:15;98441.13;;;19.76;70.38
79413;BME280;68863;49.528;11.010;2023-06-22T04:04:15;98435.47;;;19.79;69.86
79413;BME280;68863;49.528;11.010;2023-06-22T04:05:15;98437.81;;;19.82;69.81
79413;BME280;68863;49.528;11.010;2023-06-22T04:06:19;98433.28;;;19.66;70.30
79413;BME280;68863;49.528;11.010;2023-06-22T04:07:19;98417.31;;;19.74;70.24
79413;BME280;68863;49.528;11.010;2023-06-22T04:08:20;98408.16;;;19.77;70.21
79413;BME280;68863;49.528;11.010;2023-06-22T04:09:20;98408.50;;;19.74;70.51
79413;BME280;68863;49.528;11.010;2023-06-22T04:10:21;98404.19;;;19.89;69.71
79413;BME280;68863;49.528;11.010;2023-06-22T04:11:22;98410.00;;;19.93;69.63
79413;BME280;68863;49.528;11.010;2023-06-22T04:12:22;98407.69;;;19.90;69.51
79413;BME280;68863;49.528;11.010;2023-06-22T04:13:22;98409.03;;;19.94;69.27
79413;BME280;68863;49.528;11.010;2023-06-22T04:14:22;98410.19;;;19.91;69.75
79413;BME280;68863;49.528;11.010;2023-06-22T04:15:23;98405.38;;;19.95;69.33
79413;BME280;68863;49.528;11.010;2023-06-22T04:16:23;98412.69;;;19.93;69.38
79413;BME280;68863;49.528;11.010;2023-06-22T04:17:23;98405.56;;;20.01;69.37
79413;BME280;68863;49.528;11.010;2023-06-22T04:18:25;98403.03;;;20.00;69.19
79413;BME280;68863;49.528;11.010;2023-06-22T04:19:25;98405.56;;;20.01;69.20
79413;BME280;68863;49.528;11.010;2023-06-22T04:20:25;98407.22;;;20.02;69.43
79413;BME280;68863;49.528;11.010;2023-06-22T04:21:26;98398.38;;;20.02;69.38
79413;BME280;68863;49.528;11.010;2023-06-22T04:22:26;98400.22;;;20.01;69.21
79413;BME280;68863;49.528;11.010;2023-06-22T04:23:26;98394.03;;;20.01;69.04
79413;BME280;68863;49.528;11.010;2023-06-22T04:24:26;98392.69;;;19.89;69.53
79413;BME280;68863;49.528;11.010;2023-06-22T04:25:27;98388.69;;;19.85;70.16
79413;BME280;68863;49.528;11.010;2023-06-22T04:26:27;98391.22;;;19.94;69.83
79413;BME280;68863;49.528;11.010;2023-06-22T04:27:27;98399.03;;;20.04;69.38
79413;BME280;68863;49.528;11.010;2023-06-22T04:28:27;98404.03;;;20.07;69.33
79413;BME280;68863;49.528;11.010;2023-06-22T04:29:29;98391.53;;;20.07;69.39
79413;BME280;68863;49.528;11.010;2023-06-22T04:30:30;98393.56;;;20.05;69.48
79413;BME280;68863;49.528;11.010;2023-06-22T04:31:32;98391.72;;;20.06;69.32
79413;BME280;68863;49.528;11.010;2023-06-22T04:32:36;98381.06;;;19.90;69.93
79413;BME280;68863;49.528;11.010;2023-06-22T04:33:36;98381.50;;;19.77;70.75
79413;BME280;68863;49.528;11.010;2023-06-22T04:34:41;98379.66;;;19.69;70.67
79413;BME280;68863;49.528;11.010;2023-06-22T04:35:42;98372.69;;;19.85;70.48
79413;BME280;68863;49.528;11.010;2023-06-22T04:36:44;98379.03;;;19.92;70.57
79413;BME280;68863;49.528;11.010;2023-06-22T04:37:45;98366.03;;;19.97;70.03
79413;BME280;68863;49.528;11.010;2023-06-22T04:38:46;98374.72;;;19.82;70.11
79413;BME280;68863;49.528;11.010;2023-06-22T04:39:46;98368.38;;;19.92;70.25
79413;BME280;68863;49.528;11.010;2023-06-22T04:40:46;98381.72;;;20.00;70.37
79413;BME280;68863;49.528;11.010;2023-06-22T04:41:47;98370.53;;;19.96;70.02
79413;BME280;68863;49.528;11.010;2023-06-22T04:42:47;98372.56;;;20.02;69.77
79413;BME280;68863;49.528;11.010;2023-06-22T04:43:52;98378.91;;;20.01;70.23
79413;BME280;68863;49.528;11.010;2023-06-22T04:44:54;98368.72;;;19.89;70.78
79413;BME280;68863;49.528;11.010;2023-06-22T04:45:54;98373.91;;;19.98;70.60
79413;BME280;68863;49.528;11.010;2023-06-22T04:46:56;98369.72;;;19.96;70.45
79413;BME280;68863;49.528;11.010;2023-06-22T04:48:00;98371.72;;;20.02;69.83
79413;BME280;68863;49.528;11.010;2023-06-22T04:49:00;98368.88;;;19.95;70.63
79413;BME280;68863;49.528;11.010;2023-06-22T04:50:00;98358.22;;;19.95;70.79
79413;BME280;68863;49.528;11.010;2023-06-22T04:51:05;98348.72;;;19.85;70.90
79413;BME280;68863;49.528;11.010;2023-06-22T04:52:07;98348.06;;;19.91;70.89
79413;BME280;68863;49.528;11.010;2023-06-22T04:53:08;98343.75;;;19.90;70.51
79413;BME280;68863;49.528;11.010;2023-06-22T04:54:09;98344.41;;;20.00;69.95
79413;BME280;68863;49.528;11.010;2023-06-22T04:55:10;98350.72;;;20.07;69.80
79413;BME280;68863;49.528;11.010;2023-06-22T04:56:10;98353.72;;;20.12;69.72
79413;BME280;68863;49.528;11.010;2023-06-22T04:57:10;98358.06;;;20.21;69.41
79413;BME280;68863;49.528;11.010;2023-06-22T04:58:12;98358.41;;;20.18;69.52
79413;BME280;68863;49.528;11.010;2023-06-22T04:59:13;98360.75;;;20.21;69.81
79413;BME280;68863;49.528;11.010;2023-06-22T05:00:13;98359.56;;;20.16;70.00
79413;BME280;68863;49.528;11.010;2023-06-22T05:01:17;98356.22;;;20.22;69.78
79413;BME280;68863;49.528;11.010;2023-06-22T05:02:18;98362.41;;;20.14;69.94
79413;BME280;68863;49.528;11.010;2023-06-22T05:03:18;98356.22;;;20.22;69.83
79413;BME280;68863;49.528;11.010;2023-06-22T05:04:18;98358.41;;;20.18;69.41
79413;BME280;68863;49.528;11.010;2023-06-22T05:05:18;98354.56;;;20.21;69.70
79413;BME280;68863;49.528;11.010;2023-06-22T05:06:19;98362.06;;;20.25;69.33
79413;BME280;68863;49.528;11.010;2023-06-22T05:07:19;98359.41;;;20.34;69.53
79413;BME280;68863;49.528;11.010;2023-06-22T05:08:19;98369.88;;;20.35;69.29
79413;BME280;68863;49.528;11.010;2023-06-22T05:09:20;98376.22;;;20.26;69.98
79413;BME280;68863;49.528;11.010;2023-06-22T05:10:21;98375.22;;;20.35;69.58
79413;BME280;68863;49.528;11.010;2023-06-22T05:11:21;98368.72;;;20.29;69.77
79413;BME280;68863;49.528;11.010;2023-06-22T05:12:21;98361.88;;;20.35;69.42
79413;BME280;68863;49.528;11.010;2023-06-22T05:13:21;98359.53;;;20.32;69.64
79413;BME280;68863;49.528;11.010;2023-06-22T05:14:22;98358.22;;;20.28;69.72
79413;BME280;68863;49.528;11.010;2023-06-22T05:15:22;98356.41;;;20.28;69.78
79413;BME280;68863;49.528;11.010;2023-06-22T05:16:26;98354.22;;;20.40;69.87
79413;BME280;68863;49.528;11.010;2023-06-22T05:17:27;98352.69;;;20.46;69.51
79413;BME280;68863;49.528;11.010;2023-06-22T05:18:28;98354.88;;;20.50;69.48
79413;BME280;68863;49.528;11.010;2023-06-22T05:19:29;98364.72;;;20.42;69.64
79413;BME280;68863;49.528;11.010;2023-06-22T05:20:33;98354.06;;;20.50;69.85
79413;BME280;68863;49.528;11.010;2023-06-22T05:21:36;98363.56;;;20.44;70.05
79413;BME280;68863;49.528;11.010;2023-06-22T05:22:37;98367.69;;;20.47;70.04
79413;BME280;68863;49.528;11.010;2023-06-22T05:23:37;98362.06;;;20.50;69.96
79413;BME280;68863;49.528;11.010;2023-06-22T05:24:38;98349.72;;;20.57;69.98
79413;BME280;68863;49.528;11.010;2023-06-22T05:25:38;98345.03;;;20.59;69.77
79413;BME280;68863;49.528;11.010;2023-06-22T05:26:38;98335.69;;;20.63;69.96